createdAt,value
2022-11-29T00:00:02.410Z,20.5
2022-11-29T00:15:01.856Z,20.4
2022-11-29T00:30:06.095Z,20.3
2022-11-29T00:45:04.228Z,20.2
2022-11-29T01:00:05.127Z,20.2
2022-11-29T01:15:04.845Z,20.1
2022-11-29T01:30:03.163Z,20.1
2022-11-29T01:45:06.202Z,20
2022-11-29T02:00:06.354Z,19.9
2022-11-29T02:15:03.911Z,19.9
2022-11-29T02:30:02.822Z,19.8
2022-11-29T02:45:05.856Z,19.8
2022-11-29T03:00:05.999Z,19.8
2022-11-29T03:15:02.122Z,19.7
2022-11-29T03:30:05.327Z,19.6
2022-11-29T03:45:06.029Z,19.6
2022-11-29T04:00:05.210Z,19.5
2022-11-29T04:15:05.942Z,19.5
2022-11-29T04:30:04.112Z,19.4
2022-11-29T05:00:05.104Z,19.4
2022-11-29T05:15:02.382Z,19.3
2022-11-29T05:30:04.961Z,19.4
2022-11-29T05:45:04.118Z,19.4
2022-11-29T06:00:04.083Z,19.4
2022-11-29T06:15:04.943Z,19.4
2022-11-29T06:30:03.291Z,19.4
2022-11-29T06:45:05.331Z,19.4
2022-11-29T07:00:03.072Z,19.5
2022-11-29T07:15:03.138Z,19.7
2022-11-29T07:30:02.190Z,19.8
2022-11-29T07:45:05.835Z,20
2022-11-29T08:00:05.192Z,20.4
2022-11-29T08:15:02.377Z,20.6
2022-11-29T08:30:03.991Z,20.8
2022-11-29T08:45:01.902Z,20.9
2022-11-29T09:00:04.230Z,21
2022-11-29T09:15:06.185Z,20.9
2022-11-29T09:30:02.271Z,20.9
2022-11-29T09:45:04.958Z,20.9
2022-11-29T10:00:04.299Z,20.9
2022-11-29T10:15:05.215Z,21
2022-11-29T10:30:04.974Z,21.1
2022-11-29T10:45:03.352Z,21.2
2022-11-29T11:00:04.413Z,21.2
2022-11-29T11:30:01.893Z,21.2
2022-11-29T11:45:06.101Z,21.3
2022-11-29T12:00:04.351Z,21.3
2022-11-29T12:15:02.262Z,21.5
2022-11-29T12:30:05.893Z,21.6
2022-11-29T12:45:05.241Z,21.8
2022-11-29T13:00:02.818Z,21.9
2022-11-29T13:15:01.847Z,22
2022-11-29T13:30:02.099Z,22.1
2022-11-29T13:45:03.294Z,22.2
2022-11-29T14:00:04.190Z,22.2
2022-11-29T14:15:02.111Z,22.3
2022-11-29T14:30:05.285Z,22.3
2022-11-29T14:45:05.014Z,22.3
2022-11-29T15:00:06.215Z,22.1
2022-11-29T15:15:03.363Z,22
2022-11-29T15:30:04.374Z,21.8
2022-11-29T15:45:02.239Z,21.7
2022-11-29T16:00:04.814Z,21.7
2022-11-29T16:30:05.272Z,21.9
2022-11-29T16:45:02.011Z,22.2
2022-11-29T17:00:06.254Z,22.3
2022-11-29T17:15:04.841Z,22.5
2022-11-29T17:30:06.067Z,22.6
2022-11-29T17:45:02.243Z,22.7
2022-11-29T18:00:04.850Z,22.8
2022-11-29T18:15:02.173Z,22.9
2022-11-29T18:30:06.341Z,22.9
2022-11-29T18:45:01.968Z,22.9
2022-11-29T19:00:03.164Z,22.9
2022-11-29T19:15:02.225Z,22.8
2022-11-29T19:30:04.870Z,22.6
2022-11-29T19:45:05.275Z,22.4
2022-11-29T20:00:03.136Z,22.2
2022-11-29T20:15:06.152Z,22
2022-11-29T20:30:06.322Z,21.9
2022-11-29T20:45:01.890Z,21.8
2022-11-29T21:00:05.101Z,21.7
2022-11-29T21:15:05.834Z,21.6
2022-11-29T21:30:03.016Z,21.5
2022-11-29T21:45:06.065Z,21.3
2022-11-29T22:15:03.113Z,21
2022-11-29T22:30:02.217Z,20.9
2022-11-29T22:45:04.401Z,20.8
2022-11-29T23:00:06.228Z,20.7
2022-11-29T23:15:02.323Z,20.6
2022-11-29T23:30:01.923Z,20.6
2022-11-29T23:45:03.086Z,20.5
